sensor_id;sensor_type;location;lat;lon;timestamp;pressure;altitude;pressure_sealevel;temperature;humidity
35647;BME280;28680;45.642;13.756;2023-04-25T00:00:28;100585.94;;;12.01;100.00
35647;BME280;28680;45.642;13.756;2023-04-25T00:02:54;100582.50;;;12.01;100.00
35647;BME280;28680;45.642;13.756;2023-04-25T00:05:23;100587.06;;;11.99;100.00
35647;BME280;28680;45.642;13.756;2023-04-25T00:07:50;100591.34;;;12.00;100.00
35647;BME280;28680;45.642;13.756;2023-04-25T00:10:16;100586.53;;;11.84;100.00
35647;BME280;28680;45.642;13.756;2023-04-25T00:12:41;100587.22;;;11.76;100.00
35647;BME280;28680;45.642;13.756;2023-04-25T00:15:08;100596.56;;;11.69;100.00
35647;BME280;28680;45.642;13.756;2023-04-25T00:17:35;100581.34;;;11.63;100.00
35647;BME280;28680;45.642;13.756;2023-04-25T00:20:01;100587.94;;;11.57;100.00
35647;BME280;28680;45.642;13.756;2023-04-25T00:22:30;100589.34;;;11.61;100.00
35647;BME280;28680;45.642;13.756;2023-04-25T00:24:57;100587.66;;;11.60;100.00
35647;BME280;28680;45.642;13.756;2023-04-25T00:27:26;100591.91;;;11.51;100.00
35647;BME280;28680;45.642;13.756;2023-04-25T00:29:52;100593.53;;;11.43;100.00
35647;BME280;28680;45.642;13.756;2023-04-25T00:32:18;100591.13;;;11.40;100.00
35647;BME280;28680;45.642;13.756;2023-04-25T00:34:43;100583.13;;;11.41;100.00
35647;BME280;28680;45.642;13.756;2023-04-25T00:37:09;100586.88;;;11.39;100.00
35647;BME280;28680;45.642;13.756;2023-04-25T00:39:36;100586.28;;;11.35;100.00
35647;BME280;28680;45.642;13.756;2023-04-25T00:42:03;100583.47;;;11.27;100.00
35647;BME280;28680;45.642;13.756;2023-04-25T00:44:30;100577.25;;;11.28;100.00
35647;BME280;28680;45.642;13.756;2023-04-25T00:46:58;100581.28;;;11.32;100.00
35647;BME280;28680;45.642;13.756;2023-04-25T00:49:23;100580.00;;;11.26;100.00
35647;BME280;28680;45.642;13.756;2023-04-25T00:51:50;100573.78;;;11.27;100.00
35647;BME280;28680;45.642;13.756;2023-04-25T00:54:16;100570.13;;;11.40;100.00
35647;BME280;28680;45.642;13.756;2023-04-25T00:56:42;100571.78;;;11.41;100.00
35647;BME280;28680;45.642;13.756;2023-04-25T00:59:10;100565.19;;;11.46;100.00
35647;BME280;28680;45.642;13.756;2023-04-25T01:01:35;100564.94;;;11.49;100.00
35647;BME280;28680;45.642;13.756;2023-04-25T01:04:01;100580.06;;;11.57;100.00
35647;BME280;28680;45.642;13.756;2023-04-25T01:06:27;100578.66;;;11.53;100.00
35647;BME280;28680;45.642;13.756;2023-04-25T01:08:54;100583.25;;;11.40;100.00
35647;BME280;28680;45.642;13.756;2023-04-25T01:11:20;100584.81;;;11.42;100.00
35647;BME280;28680;45.642;13.756;2023-04-25T01:13:46;100578.16;;;11.38;100.00
35647;BME280;28680;45.642;13.756;2023-04-25T01:16:13;100578.56;;;11.43;100.00
35647;BME280;28680;45.642;13.756;2023-04-25T01:18:40;100580.00;;;11.47;100.00
35647;BME280;28680;45.642;13.756;2023-04-25T01:21:10;100568.50;;;11.48;100.00
35647;BME280;28680;45.642;13.756;2023-04-25T01:23:40;100563.66;;;11.44;100.00
35647;BME280;28680;45.642;13.756;2023-04-25T01:26:10;100563.38;;;11.47;100.00
35647;BME280;28680;45.642;13.756;2023-04-25T01:28:37;100562.81;;;11.43;100.00
35647;BME280;28680;45.642;13.756;2023-04-25T01:31:03;100567.66;;;11.38;100.00
35647;BME280;28680;45.642;13.756;2023-04-25T01:33:31;100576.66;;;11.24;100.00
35647;BME280;28680;45.642;13.756;2023-04-25T01:35:57;100569.75;;;11.23;100.00
35647;BME280;28680;45.642;13.756;2023-04-25T01:38:23;100577.53;;;11.25;100.00
35647;BME280;28680;45.642;13.756;2023-04-25T01:40:49;100571.28;;;11.47;100.00
35647;BME280;28680;45.642;13.756;2023-04-25T01:43:16;100570.19;;;11.49;100.00
35647;BME280;28680;45.642;13.756;2023-04-25T01:45:42;100572.66;;;11.51;100.00
35647;BME280;28680;45.642;13.756;2023-04-25T01:48:12;100577.50;;;11.46;100.00
35647;BME280;28680;45.642;13.756;2023-04-25T01:50:40;100566.72;;;11.49;100.00
35647;BME280;28680;45.642;13.756;2023-04-25T01:53:06;100566.13;;;11.45;100.00
35647;BME280;28680;45.642;13.756;2023-04-25T01:55:32;100573.28;;;11.34;100.00
35647;BME280;28680;45.642;13.756;2023-04-25T01:57:57;100567.78;;;11.16;100.00
35647;BME280;28680;45.642;13.756;2023-04-25T02:00:25;100572.13;;;11.05;100.00
35647;BME280;28680;45.642;13.756;2023-04-25T02:02:50;100571.16;;;11.06;100.00
35647;BME280;28680;45.642;13.756;2023-04-25T02:05:19;100570.69;;;11.01;100.00
35647;BME280;28680;45.642;13.756;2023-04-25T02:07:47;100582.78;;;10.92;100.00
35647;BME280;28680;45.642;13.756;2023-04-25T02:10:12;100574.34;;;10.89;100.00
35647;BME280;28680;45.642;13.756;2023-04-25T02:12:38;100574.84;;;10.83;100.00
35647;BME280;28680;45.642;13.756;2023-04-25T02:15:05;100575.09;;;10.80;100.00
35647;BME280;28680;45.642;13.756;2023-04-25T02:17:31;100568.41;;;10.87;100.00
35647;BME280;28680;45.642;13.756;2023-04-25T02:19:58;100560.78;;;11.05;100.00
35647;BME280;28680;45.642;13.756;2023-04-25T02:22:23;100553.94;;;11.14;100.00
35647;BME280;28680;45.642;13.756;2023-04-25T02:24:49;100555.88;;;11.11;100.00
35647;BME280;28680;45.642;13.756;2023-04-25T02:27:15;100555.66;;;11.24;100.00
35647;BME280;28680;45.642;13.756;2023-04-25T02:29:41;100551.44;;;11.33;100.00
35647;BME280;28680;45.642;13.756;2023-04-25T02:32:07;100553.47;;;11.29;100.00
35647;BME280;28680;45.642;13.756;2023-04-25T02:34:33;100552.06;;;11.25;100.00
35647;BME280;28680;45.642;13.756;2023-04-25T02:36:59;100553.03;;;11.03;100.00
35647;BME280;28680;45.642;13.756;2023-04-25T02:39:25;100555.13;;;10.88;100.00
35647;BME280;28680;45.642;13.756;2023-04-25T02:41:53;100562.94;;;10.79;100.00
35647;BME280;28680;45.642;13.756;2023-04-25T02:44:19;100549.50;;;10.72;100.00
35647;BME280;28680;45.642;13.756;2023-04-25T02:46:45;100548.34;;;10.86;100.00
35647;BME280;28680;45.642;13.756;2023-04-25T02:49:11;100541.69;;;11.03;100.00
35647;BME280;28680;45.642;13.756;2023-04-25T02:51:37;100547.19;;;11.00;100.00
35647;BME280;28680;45.642;13.756;2023-04-25T02:54:03;100547.25;;;10.88;100.00
35647;BME280;28680;45.642;13.756;2023-04-25T02:56:29;100547.41;;;10.87;100.00
35647;BME280;28680;45.642;13.756;2023-04-25T02:58:55;100550.03;;;10.87;100.00
35647;BME280;28680;45.642;13.756;2023-04-25T03:01:20;100539.78;;;11.05;100.00
35647;BME280;28680;45.642;13.756;2023-04-25T03:03:46;100540.34;;;11.08;100.00
35647;BME280;28680;45.642;13.756;2023-04-25T03:06:12;100543.75;;;10.99;100.00
35647;BME280;28680;45.642;13.756;2023-04-25T03:08:38;100548.66;;;10.92;100.00
35647;BME280;28680;45.642;13.756;2023-04-25T03:11:04;100555.97;;;10.89;100.00
35647;BME280;28680;45.642;13.756;2023-04-25T03:13:30;100547.75;;;10.82;100.00
35647;BME280;28680;45.642;13.756;2023-04-25T03:15:56;100551.75;;;10.98;100.00
35647;BME280;28680;45.642;13.756;2023-04-25T03:18:21;100540.88;;;11.02;100.00
35647;BME280;28680;45.642;13.756;2023-04-25T03:20:47;100540.09;;;11.11;100.00
35647;BME280;28680;45.642;13.756;2023-04-25T03:23:13;100536.38;;;11.14;100.00
35647;BME280;28680;45.642;13.756;2023-04-25T03:25:39;100540.75;;;11.25;100.00
35647;BME280;28680;45.642;13.756;2023-04-25T03:28:06;100529.25;;;11.26;100.00
35647;BME280;28680;45.642;13.756;2023-04-25T03:30:32;100530.78;;;11.28;100.00
35647;BME280;28680;45.642;13.756;2023-04-25T03:32:57;100522.06;;;11.28;100.00
35647;BME280;28680;45.642;13.756;2023-04-25T03:35:23;100537.00;;;11.27;100.00
35647;BME280;28680;45.642;13.756;2023-04-25T03:37:49;100528.56;;;11.24;100.00
35647;BME280;28680;45.642;13.756;2023-04-25T03:40:15;100532.53;;;11.18;100.00
35647;BME280;28680;45.642;13.756;2023-04-25T03:42:41;100532.59;;;11.07;100.00
35647;BME280;28680;45.642;13.756;2023-04-25T03:45:08;100537.53;;;11.00;100.00
35647;BME280;28680;45.642;13.756;2023-04-25T03:47:33;100528.38;;;10.95;100.00
35647;BME280;28680;45.642;13.756;2023-04-25T03:49:59;100535.91;;;10.88;100.00
35647;BME280;28680;45.642;13.756;2023-04-25T03:52:27;100533.06;;;10.91;100.00
35647;BME280;28680;45.642;13.756;2023-04-25T03:54:53;100536.16;;;10.85;100.00
35647;BME280;28680;45.642;13.756;2023-04-25T03:57:18;100540.72;;;10.83;100.00
35647;BME280;28680;45.642;13.756;2023-04-25T03:59:45;100540.91;;;10.70;100.00
35647;BME280;28680;45.642;13.756;2023-04-25T04:02:10;100539.47;;;10.66;100.00
35647;BME280;28680;45.642;13.756;2023-04-25T04:04:36;100535.91;;;10.88;100.00
35647;BME280;28680;45.642;13.756;2023-04-25T04:07:02;100527.22;;;11.08;100.00
35647;BME280;28680;45.642;13.756;2023-04-25T04:09:29;100513.84;;;11.11;100.00
35647;BME280;28680;45.642;13.756;2023-04-25T04:11:55;100515.81;;;11.19;100.00
35647;BME280;28680;45.642;13.756;2023-04-25T04:14:21;100510.00;;;11.16;100.00
35647;BME280;28680;45.642;13.756;2023-04-25T04:16:46;100510.69;;;11.18;100.00
35647;BME280;28680;45.642;13.756;2023-04-25T04:19:12;100519.16;;;11.21;100.00
35647;BME280;28680;45.642;13.756;2023-04-25T04:21:38;100515.00;;;11.28;100.00
35647;BME280;28680;45.642;13.756;2023-04-25T04:24:04;100510.34;;;11.32;100.00
35647;BME280;28680;45.642;13.756;2023-04-25T04:26:32;100517.38;;;11.31;100.00
35647;BME280;28680;45.642;13.756;2023-04-25T04:28:59;100519.31;;;11.29;100.00
35647;BME280;28680;45.642;13.756;2023-04-25T04:31:25;100517.09;;;11.25;100.00
35647;BME280;28680;45.642;13.756;2023-04-25T04:33:51;100518.75;;;11.26;100.00
35647;BME280;28680;45.642;13.756;2023-04-25T04:36:17;100530.34;;;11.23;100.00
35647;BME280;28680;45.642;13.756;2023-04-25T04:38:47;100525.81;;;11.25;100.00
35647;BME280;28680;45.642;13.756;2023-04-25T04:41:13;100537.97;;;11.26;100.00
35647;BME280;28680;45.642;13.756;2023-04-25T04:43:39;100539.19;;;11.22;100.00
35647;BME280;28680;45.642;13.756;2023-04-25T04:46:05;100543.16;;;11.17;100.00
35647;BME280;28680;45.642;13.756;2023-04-25T04:48:32;100550.22;;;11.16;100.00
35647;BME280;28680;45.642;13.756;2023-04-25T04:51:00;100548.41;;;11.17;100.00
35647;BME280;28680;45.642;13.756;2023-04-25T04:53:26;100548.28;;;11.18;100.00
35647;BME280;28680;45.642;13.756;2023-04-25T04:55:53;100542.38;;;11.26;100.00
35647;BME280;28680;45.642;13.756;2023-04-25T04:58:18;100537.72;;;11.29;100.00
35647;BME280;28680;45.642;13.756;2023-04-25T05:00:45;100536.75;;;11.30;100.00
35647;BME280;28680;45.642;13.756;2023-04-25T05:03:11;100536.75;;;11.30;100.00
35647;BME280;28680;45.642;13.756;2023-04-25T05:05:37;100537.75;;;11.39;100.00
35647;BME280;28680;45.642;13.756;2023-04-25T05:08:06;100527.81;;;11.43;100.00
35647;BME280;28680;45.642;13.756;2023-04-25T05:10:32;100526.59;;;11.47;100.00
35647;BME280;28680;45.642;13.756;2023-04-25T05:12:58;100524.00;;;11.57;100.00
35647;BME280;28680;45.642;13.756;2023-04-25T05:15:23;100517.38;;;11.62;100.00
35647;BME280;28680;45.642;13.756;2023-04-25T05:17:49;100519.34;;;11.70;100.00
35647;BME280;28680;45.642;13.756;2023-04-25T05:20:15;100511.22;;;11.83;100.00
35647;BME280;28680;45.642;13.756;2023-04-25T05:22:41;100507.56;;;11.95;100.00
35647;BME280;28680;45.642;13.756;2023-04-25T05:25:08;100512.03;;;12.04;100.00
35647;BME280;28680;45.642;13.756;2023-04-25T05:27:35;100515.06;;;12.09;100.00
35647;BME280;28680;45.642;13.756;2023-04-25T05:30:01;100510.94;;;12.17;100.00
35647;BME280;28680;45.642;13.756;2023-04-25T05:32:27;100515.66;;;12.23;100.00
35647;BME280;28680;45.642;13.756;2023-04-25T05:34:53;100509.00;;;12.28;100.00
35647;BME280;28680;45.642;13.756;2023-04-25T05:37:18;100495.03;;;12.38;100.00
35647;BME280;28680;45.642;13.756;2023-04-25T05:39:44;100490.63;;;12.48;100.00
35647;BME280;28680;45.642;13.756;2023-04-25T05:42:10;100491.88;;;12.54;100.00
35647;BME280;28680;45.642;13.756;2023-04-25T05:44:36;100498.06;;;12.62;100.00
35647;BME280;28680;45.642;13.756;2023-04-25T05:47:02;100492.97;;;12.71;100.00
35647;BME280;28680;45.642;13.756;2023-04-25T05:49:30;100488.78;;;12.78;100.00
35647;BME280;28680;45.642;13.756;2023-04-25T05:51:56;100485.59;;;12.84;100.00
35647;BME280;28680;45.642;13.756;2023-04-25T05:54:22;100493.75;;;12.91;100.00
35647;BME280;28680;45.642;13.756;2023-04-25T05:56:48;100494.72;;;12.99;100.00
35647;BME280;28680;45.642;13.756;2023-04-25T05:59:14;100492.34;;;13.06;100.00
35647;BME280;28680;45.642;13.756;2023-04-25T06:01:40;100491.66;;;13.14;100.00
35647;BME280;28680;45.642;13.756;2023-04-25T06:04:06;100485.13;;;13.18;100.00
35647;BME280;28680;45.642;13.756;2023-04-25T06:06:31;100491.44;;;13.25;100.00
35647;BME280;28680;45.642;13.756;2023-04-25T06:08:57;100490.06;;;13.31;100.00
35647;BME280;28680;45.642;13.756;2023-04-25T06:11:23;100485.06;;;13.37;100.00
35647;BME280;28680;45.642;13.756;2023-04-25T06:13:49;100492.25;;;13.45;100.00
35647;BME280;28680;45.642;13.756;2023-04-25T06:16:15;100487.38;;;13.50;100.00
35647;BME280;28680;45.642;13.756;2023-04-25T06:18:41;100497.75;;;13.61;100.00
35647;BME280;28680;45.642;13.756;2023-04-25T06:21:07;100494.13;;;13.62;100.00
35647;BME280;28680;45.642;13.756;2023-04-25T06:23:32;100491.75;;;13.69;100.00
35647;BME280;28680;45.642;13.756;2023-04-25T06:25:58;100500.19;;;13.73;100.00
35647;BME280;28680;45.642;13.756;2023-04-25T06:28:24;100504.47;;;13.74;100.00
35647;BME280;28680;45.642;13.756;2023-04-25T06:30:51;100503.19;;;13.78;100.00
35647;BME280;28680;45.642;13.756;2023-04-25T06:33:16;100511.66;;;13.81;100.00
35647;BME280;28680;45.642;13.756;2023-04-25T06:35:42;100520.97;;;13.86;100.00
35647;BME280;28680;45.642;13.756;2023-04-25T06:38:08;100523.59;;;13.86;100.00
35647;BME280;28680;45.642;13.756;2023-04-25T06:40:34;100531.84;;;13.73;100.00
35647;BME280;28680;45.642;13.756;2023-04-25T06:43:00;100534.75;;;13.70;100.00
35647;BME280;28680;45.642;13.756;2023-04-25T06:45:26;100544.91;;;13.64;100.00
35647;BME280;28680;45.642;13.756;2023-04-25T06:47:52;100538.13;;;13.62;100.00
35647;BME280;28680;45.642;13.756;2023-04-25T06:50:18;100538.00;;;13.63;100.00
35647;BME280;28680;45.642;13.756;2023-04-25T06:52:43;100545.59;;;13.67;100.00
35647;BME280;28680;45.642;13.756;2023-04-25T06:55:09;100556.59;;;13.62;100.00
35647;BME280;28680;45.642;13.756;2023-04-25T06:57:35;100581.50;;;13.30;100.00
35647;BME280;28680;45.642;13.756;2023-04-25T07:00:01;100592.31;;;12.98;100.00
35647;BME280;28680;45.642;13.756;2023-04-25T07:02:30;100598.28;;;12.80;100.00
35647;BME280;28680;45.642;13.756;2023-04-25T07:04:56;100616.03;;;12.78;100.00
35647;BME280;28680;45.642;13.756;2023-04-25T07:07:26;100624.06;;;12.77;100.00
35647;BME280;28680;45.642;13.756;2023-04-25T07:09:52;100629.59;;;12.74;100.00
35647;BME280;28680;45.642;13.756;2023-04-25T07:12:17;100642.78;;;12.74;100.00
35647;BME280;28680;45.642;13.756;2023-04-25T07:14:43;100634.03;;;12.63;100.00
35647;BME280;28680;45.642;13.756;2023-04-25T07:17:09;100636.81;;;12.81;100.00
35647;BME280;28680;45.642;13.756;2023-04-25T07:19:35;100636.41;;;12.86;100.00
35647;BME280;28680;45.642;13.756;2023-04-25T07:22:02;100637.81;;;12.90;100.00
35647;BME280;28680;45.642;13.756;2023-04-25T07:24:28;100636.69;;;12.83;100.00
35647;BME280;28680;45.642;13.756;2023-04-25T07:26:54;100630.34;;;12.95;100.00
35647;BME280;28680;45.642;13.756;2023-04-25T07:29:20;100635.47;;;12.97;100.00
35647;BME280;28680;45.642;13.756;2023-04-25T07:31:46;100630.59;;;13.02;100.00
35647;BME280;28680;45.642;13.756;2023-04-25T07:34:11;100635.59;;;12.95;100.00
35647;BME280;28680;45.642;13.756;2023-04-25T07:36:37;100632.97;;;12.95;100.00
35647;BME280;28680;45.642;13.756;2023-04-25T07:39:04;100631.41;;;12.93;100.00
35647;BME280;28680;45.642;13.756;2023-04-25T07:41:29;100638.94;;;12.97;100.00
35647;BME280;28680;45.642;13.756;2023-04-25T07:43:55;100642.66;;;12.95;100.00
35647;BME280;28680;45.642;13.756;2023-04-25T07:46:21;100634.78;;;13.04;100.00
35647;BME280;28680;45.642;13.756;2023-04-25T07:48:47;100642.25;;;13.09;100.00
35647;BME280;28680;45.642;13.756;2023-04-25T07:51:13;100645.19;;;13.16;100.00
35647;BME280;28680;45.642;13.756;2023-04-25T07:53:39;100651.66;;;13.12;100.00
35647;BME280;28680;45.642;13.756;2023-04-25T07:56:06;100656.25;;;13.10;100.00
35647;BME280;28680;45.642;13.756;2023-04-25T07:58:32;100648.34;;;13.10;100.00
35647;BME280;28680;45.642;13.756;2023-04-25T08:00:58;100648.91;;;13.13;100.00
35647;BME280;28680;45.642;13.756;2023-04-25T08:03:24;100653.09;;;13.16;100.00
35647;BME280;28680;45.642;13.756;2023-04-25T08:05:50;100654.47;;;13.10;100.00
35647;BME280;28680;45.642;13.756;2023-04-25T08:08:16;100663.31;;;13.09;100.00
35647;BME280;28680;45.642;13.756;2023-04-25T08:10:42;100664.44;;;13.16;100.00
35647;BME280;28680;45.642;13.756;2023-04-25T08:13:07;100667.91;;;13.17;100.00
35647;BME280;28680;45.642;13.756;2023-04-25T08:15:33;100675.25;;;13.13;100.00
35647;BME280;28680;45.642;13.756;2023-04-25T08:17:59;100677.31;;;13.19;100.00
35647;BME280;28680;45.642;13.756;2023-04-25T08:20:25;100682.06;;;13.25;100.00
35647;BME280;28680;45.642;13.756;2023-04-25T08:22:51;100678.75;;;13.33;100.00
35647;BME280;28680;45.642;13.756;2023-04-25T08:25:17;100682.22;;;13.43;100.00
35647;BME280;28680;45.642;13.756;2023-04-25T08:27:43;100688.19;;;13.36;100.00
35647;BME280;28680;45.642;13.756;2023-04-25T08:30:09;100691.38;;;13.39;100.00
35647;BME280;28680;45.642;13.756;2023-04-25T08:32:35;100692.50;;;13.37;100.00
35647;BME280;28680;45.642;13.756;2023-04-25T08:35:04;100694.16;;;13.38;100.00
35647;BME280;28680;45.642;13.756;2023-04-25T08:37:29;100693.88;;;13.31;100.00
35647;BME280;28680;45.642;13.756;2023-04-25T08:39:56;100709.25;;;13.26;100.00
35647;BME280;28680;45.642;13.756;2023-04-25T08:42:22;100711.06;;;13.25;100.00
35647;BME280;28680;45.642;13.756;2023-04-25T08:44:49;100715.34;;;13.17;100.00
35647;BME280;28680;45.642;13.756;2023-04-25T08:47:15;100703.97;;;13.16;100.00
35647;BME280;28680;45.642;13.756;2023-04-25T08:49:46;100711.44;;;13.21;100.00
35647;BME280;28680;45.642;13.756;2023-04-25T08:52:13;100705.94;;;13.34;100.00
35647;BME280;28680;45.642;13.756;2023-04-25T08:54:43;100716.22;;;13.47;100.00
35647;BME280;28680;45.642;13.756;2023-04-25T08:57:15;100714.00;;;13.52;100.00
35647;BME280;28680;45.642;13.756;2023-04-25T08:59:41;100712.19;;;13.62;100.00
35647;BME280;28680;45.642;13.756;2023-04-25T09:02:13;100712.59;;;13.38;100.00
35647;BME280;28680;45.642;13.756;2023-04-25T09:04:44;100712.59;;;13.48;100.00
35647;BME280;28680;45.642;13.756;2023-04-25T09:07:10;100708.88;;;13.50;100.00
35647;BME280;28680;45.642;13.756;2023-04-25T09:09:36;100706.59;;;14.32;100.00
35647;BME280;28680;45.642;13.756;2023-04-25T09:12:02;100711.63;;;14.53;100.00
35647;BME280;28680;45.642;13.756;2023-04-25T09:14:28;100711.75;;;14.61;100.00
35647;BME280;28680;45.642;13.756;2023-04-25T09:19:27;100708.81;;;14.64;100.00
35647;BME280;28680;45.642;13.756;2023-04-25T09:21:56;100709.41;;;14.58;100.00
35647;BME280;28680;45.642;13.756;2023-04-25T09:27:18;100710.59;;;14.73;100.00
35647;BME280;28680;45.642;13.756;2023-04-25T09:29:44;100726.44;;;14.91;100.00
35647;BME280;28680;45.642;13.756;2023-04-25T09:32:19;100715.53;;;14.58;100.00
35647;BME280;28680;45.642;13.756;2023-04-25T09:34:54;100719.84;;;14.59;100.00
35647;BME280;28680;45.642;13.756;2023-04-25T09:37:26;100723.78;;;14.36;100.00
35647;BME280;28680;45.642;13.756;2023-04-25T09:39:58;100718.59;;;14.44;100.00
35647;BME280;28680;45.642;13.756;2023-04-25T09:42:31;100726.09;;;14.86;100.00
35647;BME280;28680;45.642;13.756;2023-04-25T09:45:03;100731.72;;;15.19;100.00
35647;BME280;28680;45.642;13.756;2023-04-25T09:47:29;100722.50;;;14.59;100.00
35647;BME280;28680;45.642;13.756;2023-04-25T09:49:55;100729.53;;;14.31;100.00
35647;BME280;28680;45.642;13.756;2023-04-25T09:52:23;100726.16;;;14.76;100.00
35647;BME280;28680;45.642;13.756;2023-04-25T09:54:50;100719.38;;;14.92;100.00
35647;BME280;28680;45.642;13.756;2023-04-25T09:57:24;100729.06;;;15.01;100.00
35647;BME280;28680;45.642;13.756;2023-04-25T09:59:52;100722.72;;;15.12;100.00
35647;BME280;28680;45.642;13.756;2023-04-25T10:02:21;100719.72;;;15.07;100.00
35647;BME280;28680;45.642;13.756;2023-04-25T10:04:51;100717.84;;;14.89;100.00
35647;BME280;28680;45.642;13.756;2023-04-25T10:07:20;100716.59;;;15.11;100.00
35647;BME280;28680;45.642;13.756;2023-04-25T10:09:49;100701.94;;;15.17;100.00
35647;BME280;28680;45.642;13.756;2023-04-25T10:12:17;100699.97;;;15.19;100.00
35647;BME280;28680;45.642;13.756;2023-04-25T10:14:44;100699.53;;;15.24;100.00
35647;BME280;28680;45.642;13.756;2023-04-25T10:17:11;100702.66;;;14.91;100.00
35647;BME280;28680;45.642;13.756;2023-04-25T10:19:37;100696.16;;;14.86;100.00
35647;BME280;28680;45.642;13.756;2023-04-25T10:24:46;100685.81;;;14.47;100.00
35647;BME280;28680;45.642;13.756;2023-04-25T10:27:12;100683.16;;;14.74;100.00
35647;BME280;28680;45.642;13.756;2023-04-25T10:29:39;100666.75;;;14.98;100.00
35647;BME280;28680;45.642;13.756;2023-04-25T10:32:08;100667.88;;;15.14;100.00
35647;BME280;28680;45.642;13.756;2023-04-25T10:34:42;100659.94;;;15.32;100.00
35647;BME280;28680;45.642;13.756;2023-04-25T10:37:11;100661.94;;;14.38;100.00
35647;BME280;28680;45.642;13.756;2023-04-25T10:39:40;100666.75;;;13.88;100.00
35647;BME280;28680;45.642;13.756;2023-04-25T10:42:07;100660.41;;;13.71;100.00
35647;BME280;28680;45.642;13.756;2023-04-25T10:44:38;100670.78;;;13.72;100.00
35647;BME280;28680;45.642;13.756;2023-04-25T10:47:08;100678.59;;;13.54;100.00
35647;BME280;28680;45.642;13.756;2023-04-25T10:49:42;100676.78;;;13.74;100.00
35647;BME280;28680;45.642;13.756;2023-04-25T10:54:57;100665.84;;;13.50;100.00
35647;BME280;28680;45.642;13.756;2023-04-25T10:57:38;100664.19;;;13.49;100.00
35647;BME280;28680;45.642;13.756;2023-04-25T11:00:19;100669.66;;;13.84;100.00
35647;BME280;28680;45.642;13.756;2023-04-25T11:02:53;100660.56;;;13.97;100.00
35647;BME280;28680;45.642;13.756;2023-04-25T11:05:34;100646.38;;;14.08;100.00
35647;BME280;28680;45.642;13.756;2023-04-25T11:08:00;100641.75;;;14.19;100.00
35647;BME280;28680;45.642;13.756;2023-04-25T11:10:31;100639.84;;;14.39;100.00
35647;BME280;28680;45.642;13.756;2023-04-25T11:12:58;100640.75;;;14.58;100.00
35647;BME280;28680;45.642;13.756;2023-04-25T11:15:26;100647.38;;;14.07;100.00
35647;BME280;28680;45.642;13.756;2023-04-25T11:17:52;100649.44;;;14.13;100.00
35647;BME280;28680;45.642;13.756;2023-04-25T11:20:19;100654.38;;;13.88;100.00
35647;BME280;28680;45.642;13.756;2023-04-25T11:22:46;100653.88;;;14.40;100.00
35647;BME280;28680;45.642;13.756;2023-04-25T11:25:14;100661.88;;;14.58;100.00
35647;BME280;28680;45.642;13.756;2023-04-25T11:27:55;100664.84;;;14.08;100.00
35647;BME280;28680;45.642;13.756;2023-04-25T11:30:24;100665.09;;;13.77;100.00
35647;BME280;28680;45.642;13.756;2023-04-25T11:32:50;100660.56;;;13.59;100.00
35647;BME280;28680;45.642;13.756;2023-04-25T11:35:19;100668.84;;;13.64;100.00
35647;BME280;28680;45.642;13.756;2023-04-25T11:37:45;100660.56;;;13.59;100.00
35647;BME280;28680;45.642;13.756;2023-04-25T11:40:11;100663.03;;;13.61;100.00
35647;BME280;28680;45.642;13.756;2023-04-25T11:42:47;100653.34;;;13.61;100.00
35647;BME280;28680;45.642;13.756;2023-04-25T11:45:14;100654.97;;;13.82;100.00
35647;BME280;28680;45.642;13.756;2023-04-25T11:47:40;100655.22;;;14.44;100.00
35647;BME280;28680;45.642;13.756;2023-04-25T11:50:08;100652.94;;;15.23;100.00
35647;BME280;28680;45.642;13.756;2023-04-25T11:52:40;100645.59;;;15.16;100.00
35647;BME280;28680;45.642;13.756;2023-04-25T11:55:17;100646.13;;;15.64;100.00
35647;BME280;28680;45.642;13.756;2023-04-25T11:57:45;100635.84;;;15.61;100.00
35647;BME280;28680;45.642;13.756;2023-04-25T12:00:17;100639.03;;;15.91;100.00
35647;BME280;28680;45.642;13.756;2023-04-25T12:02:50;100646.41;;;15.79;100.00
35647;BME280;28680;45.642;13.756;2023-04-25T12:05:16;100641.72;;;15.99;100.00
35647;BME280;28680;45.642;13.756;2023-04-25T12:07:42;100645.47;;;15.88;100.00
35647;BME280;28680;45.642;13.756;2023-04-25T12:10:14;100631.06;;;15.65;100.00
35647;BME280;28680;45.642;13.756;2023-04-25T12:12:45;100633.59;;;15.92;100.00
35647;BME280;28680;45.642;13.756;2023-04-25T12:15:23;100625.88;;;15.55;100.00
35647;BME280;28680;45.642;13.756;2023-04-25T12:17:52;100626.88;;;15.28;100.00
35647;BME280;28680;45.642;13.756;2023-04-25T12:20:24;100623.94;;;14.95;100.00
35647;BME280;28680;45.642;13.756;2023-04-25T12:22:52;100630.13;;;15.04;100.00
35647;BME280;28680;45.642;13.756;2023-04-25T12:28:21;100615.56;;;15.44;100.00
35647;BME280;28680;45.642;13.756;2023-04-25T12:33:30;100592.69;;;15.60;100.00
35647;BME280;28680;45.642;13.756;2023-04-25T12:35:57;100589.81;;;15.01;100.00
35647;BME280;28680;45.642;13.756;2023-04-25T12:38:25;100584.38;;;14.85;100.00
35647;BME280;28680;45.642;13.756;2023-04-25T12:40:51;100577.88;;;14.97;100.00
35647;BME280;28680;45.642;13.756;2023-04-25T12:43:17;100576.94;;;15.51;100.00
35647;BME280;28680;45.642;13.756;2023-04-25T12:45:44;100576.78;;;15.52;100.00